Terminal Aerodrome Forecast
Issued by NWS

Current Version | Previous Version | Text Only | Print | Product List | Glossary On
Versions: 1 2 3 4 5 6 7 8 9 10 11 12 13 14 15 16 17 18 19 20
000
FTUS42 KTBW 281728
TAFLAL
TAF
KLAL 281728Z 2818/2918 24008KT P6SM VCTS SCT025CB BKN080
      TEMPO 2818/2821 6SM SHRA BKN030
     FM282300 24006KT P6SM VCSH SCT025 BKN035
     FM290200 23005KT P6SM FEW010 BKN050 BKN200
     FM291300 25007KT P6SM SHRA BKN040 BKN200=

USA.gov is the U.S. government's official web portal to all federal, state and local government web resources and services.